sensor_id;sensor_type;location;lat;lon;timestamp;pressure;altitude;pressure_sealevel;temperature;humidity
21779;BME280;11050;52.222;20.916;2022-09-09T00:00:46;99872.56;;;14.65;100.00
21779;BME280;11050;52.222;20.916;2022-09-09T00:03:19;99875.16;;;14.57;100.00
21779;BME280;11050;52.222;20.916;2022-09-09T00:06:05;99871.06;;;14.49;100.00
21779;BME280;11050;52.222;20.916;2022-09-09T00:09:15;99880.56;;;14.38;100.00
21779;BME280;11050;52.222;20.916;2022-09-09T00:12:19;99867.66;;;14.29;100.00
21779;BME280;11050;52.222;20.916;2022-09-09T00:15:07;99865.53;;;14.15;100.00
21779;BME280;11050;52.222;20.916;2022-09-09T00:17:57;99861.94;;;14.15;100.00
21779;BME280;11050;52.222;20.916;2022-09-09T00:20:45;99871.34;;;14.09;100.00
21779;BME280;11050;52.222;20.916;2022-09-09T00:28:48;99863.72;;;13.96;100.00
21779;BME280;11050;52.222;20.916;2022-09-09T00:31:27;99869.59;;;13.84;100.00
21779;BME280;11050;52.222;20.916;2022-09-09T00:33:55;99868.50;;;13.80;100.00
21779;BME280;11050;52.222;20.916;2022-09-09T00:36:26;99872.94;;;13.81;100.00
21779;BME280;11050;52.222;20.916;2022-09-09T00:39:00;99866.63;;;13.76;100.00
21779;BME280;11050;52.222;20.916;2022-09-09T00:44:37;99878.22;;;13.73;100.00
21779;BME280;11050;52.222;20.916;2022-09-09T00:57:51;99873.31;;;13.65;100.00
21779;BME280;11050;52.222;20.916;2022-09-09T01:00:25;99881.06;;;13.58;100.00
21779;BME280;11050;52.222;20.916;2022-09-09T01:03:20;99872.53;;;13.59;100.00
21779;BME280;11050;52.222;20.916;2022-09-09T01:06:29;99878.84;;;13.60;100.00
21779;BME280;11050;52.222;20.916;2022-09-09T01:09:22;99873.31;;;13.60;100.00
21779;BME280;11050;52.222;20.916;2022-09-09T01:12:38;99872.22;;;13.61;100.00
21779;BME280;11050;52.222;20.916;2022-09-09T01:15:12;99859.78;;;13.63;100.00
21779;BME280;11050;52.222;20.916;2022-09-09T01:18:03;99858.44;;;13.61;100.00
21779;BME280;11050;52.222;20.916;2022-09-09T01:24:22;99846.53;;;13.60;100.00
21779;BME280;11050;52.222;20.916;2022-09-09T01:26:59;99854.81;;;13.60;100.00
21779;BME280;11050;52.222;20.916;2022-09-09T01:29:26;99854.00;;;13.60;100.00
21779;BME280;11050;52.222;20.916;2022-09-09T01:32:01;99854.00;;;13.60;100.00
21779;BME280;11050;52.222;20.916;2022-09-09T01:34:33;99854.28;;;13.58;100.00
21779;BME280;11050;52.222;20.916;2022-09-09T01:37:12;99855.13;;;13.59;100.00
21779;BME280;11050;52.222;20.916;2022-09-09T01:39:42;99849.84;;;13.62;100.00
21779;BME280;11050;52.222;20.916;2022-09-09T01:42:12;99853.16;;;13.64;100.00
21779;BME280;11050;52.222;20.916;2022-09-09T01:44:39;99857.28;;;13.62;100.00
21779;BME280;11050;52.222;20.916;2022-09-09T01:47:06;99859.50;;;13.65;100.00
21779;BME280;11050;52.222;20.916;2022-09-09T01:49:32;99862.81;;;13.67;100.00
21779;BME280;11050;52.222;20.916;2022-09-09T01:51:59;99858.94;;;13.68;100.00
21779;BME280;11050;52.222;20.916;2022-09-09T01:54:29;99865.00;;;13.70;100.00
21779;BME280;11050;52.222;20.916;2022-09-09T01:57:31;99867.47;;;13.71;100.00
21779;BME280;11050;52.222;20.916;2022-09-09T02:00:12;99860.84;;;13.72;100.00
21779;BME280;11050;52.222;20.916;2022-09-09T02:08:09;99852.81;;;13.71;100.00
21779;BME280;11050;52.222;20.916;2022-09-09T02:10:46;99851.19;;;13.70;100.00
21779;BME280;11050;52.222;20.916;2022-09-09T02:13:19;99854.50;;;13.72;100.00
21779;BME280;11050;52.222;20.916;2022-09-09T02:15:56;99848.66;;;13.73;100.00
21779;BME280;11050;52.222;20.916;2022-09-09T02:19:01;99833.22;;;13.72;100.00
21779;BME280;11050;52.222;20.916;2022-09-09T02:21:31;99846.75;;;13.74;100.00
21779;BME280;11050;52.222;20.916;2022-09-09T02:24:01;99843.97;;;13.74;100.00
21779;BME280;11050;52.222;20.916;2022-09-09T02:26:35;99839.00;;;13.76;100.00
21779;BME280;11050;52.222;20.916;2022-09-09T02:29:08;99836.78;;;13.73;100.00
21779;BME280;11050;52.222;20.916;2022-09-09T02:31:38;99837.88;;;13.77;100.00
21779;BME280;11050;52.222;20.916;2022-09-09T02:34:07;99844.53;;;13.76;100.00
21779;BME280;11050;52.222;20.916;2022-09-09T02:36:38;99848.63;;;13.78;100.00
21779;BME280;11050;52.222;20.916;2022-09-09T02:39:08;99859.66;;;13.83;100.00
21779;BME280;11050;52.222;20.916;2022-09-09T02:41:39;99862.44;;;13.83;100.00
21779;BME280;11050;52.222;20.916;2022-09-09T02:44:19;99862.72;;;13.82;100.00
21779;BME280;11050;52.222;20.916;2022-09-09T02:50:28;99869.88;;;13.83;100.00
21779;BME280;11050;52.222;20.916;2022-09-09T02:53:16;99859.97;;;13.82;100.00
21779;BME280;11050;52.222;20.916;2022-09-09T02:55:50;99862.13;;;13.85;100.00
21779;BME280;11050;52.222;20.916;2022-09-09T02:58:21;99861.00;;;13.86;100.00
21779;BME280;11050;52.222;20.916;2022-09-09T03:00:49;99854.41;;;13.87;100.00
21779;BME280;11050;52.222;20.916;2022-09-09T03:03:17;99846.69;;;13.84;100.00
21779;BME280;11050;52.222;20.916;2022-09-09T03:05:44;99850.53;;;13.83;100.00
21779;BME280;11050;52.222;20.916;2022-09-09T03:08:12;99851.13;;;13.80;100.00
21779;BME280;11050;52.222;20.916;2022-09-09T03:10:39;99851.13;;;13.80;100.00
21779;BME280;11050;52.222;20.916;2022-09-09T03:13:05;99855.81;;;13.79;100.00
21779;BME280;11050;52.222;20.916;2022-09-09T03:15:32;99858.88;;;13.78;100.00
21779;BME280;11050;52.222;20.916;2022-09-09T03:17:59;99854.69;;;13.80;100.00
21779;BME280;11050;52.222;20.916;2022-09-09T03:20:28;99852.78;;;13.81;100.00
21779;BME280;11050;52.222;20.916;2022-09-09T03:22:54;99846.94;;;13.82;100.00
21779;BME280;11050;52.222;20.916;2022-09-09T03:25:21;99849.97;;;13.86;100.00
21779;BME280;11050;52.222;20.916;2022-09-09T03:27:52;99847.50;;;13.84;100.00
21779;BME280;11050;52.222;20.916;2022-09-09T03:30:22;99840.88;;;13.85;100.00
21779;BME280;11050;52.222;20.916;2022-09-09T03:32:48;99843.94;;;13.84;100.00
21779;BME280;11050;52.222;20.916;2022-09-09T03:35:14;99845.56;;;13.85;100.00
21779;BME280;11050;52.222;20.916;2022-09-09T03:37:40;99846.94;;;13.87;100.00
21779;BME280;11050;52.222;20.916;2022-09-09T03:40:08;99844.72;;;13.89;100.00
21779;BME280;11050;52.222;20.916;2022-09-09T03:42:36;99850.78;;;13.91;100.00
21779;BME280;11050;52.222;20.916;2022-09-09T03:45:04;99848.56;;;13.88;100.00
21779;BME280;11050;52.222;20.916;2022-09-09T03:47:31;99855.47;;;13.86;100.00
21779;BME280;11050;52.222;20.916;2022-09-09T03:49:56;99862.97;;;13.85;100.00
21779;BME280;11050;52.222;20.916;2022-09-09T03:52:22;99867.38;;;13.86;100.00
21779;BME280;11050;52.222;20.916;2022-09-09T03:54:51;99859.38;;;13.85;100.00
21779;BME280;11050;52.222;20.916;2022-09-09T03:57:17;99862.69;;;13.87;100.00
21779;BME280;11050;52.222;20.916;2022-09-09T03:59:43;99859.34;;;13.90;100.00
21779;BME280;11050;52.222;20.916;2022-09-09T04:02:09;99852.72;;;13.91;100.00
21779;BME280;11050;52.222;20.916;2022-09-09T04:04:35;99852.16;;;13.89;100.00
21779;BME280;11050;52.222;20.916;2022-09-09T04:07:01;99850.25;;;13.89;100.00
21779;BME280;11050;52.222;20.916;2022-09-09T04:09:27;99852.16;;;13.89;100.00
21779;BME280;11050;52.222;20.916;2022-09-09T04:11:53;99858.78;;;13.88;100.00
21779;BME280;11050;52.222;20.916;2022-09-09T04:14:19;99854.41;;;13.87;100.00
21779;BME280;11050;52.222;20.916;2022-09-09T04:16:45;99851.91;;;13.85;100.00
21779;BME280;11050;52.222;20.916;2022-09-09T04:19:12;99853.03;;;13.84;100.00
21779;BME280;11050;52.222;20.916;2022-09-09T04:21:42;99856.31;;;13.86;100.00
21779;BME280;11050;52.222;20.916;2022-09-09T04:24:08;99855.78;;;13.89;100.00
21779;BME280;11050;52.222;20.916;2022-09-09T04:26:35;99856.31;;;13.91;100.00
21779;BME280;11050;52.222;20.916;2022-09-09T04:29:03;99862.34;;;13.93;100.00
21779;BME280;11050;52.222;20.916;2022-09-09T04:31:29;99857.09;;;13.92;100.00
21779;BME280;11050;52.222;20.916;2022-09-09T04:33:56;99850.78;;;13.91;100.00
21779;BME280;11050;52.222;20.916;2022-09-09T04:36:22;99855.97;;;13.98;100.00
21779;BME280;11050;52.222;20.916;2022-09-09T04:38:48;99856.75;;;14.03;100.00
21779;BME280;11050;52.222;20.916;2022-09-09T04:41:16;99852.31;;;14.07;100.00
21779;BME280;11050;52.222;20.916;2022-09-09T04:43:43;99855.06;;;14.07;100.00
21779;BME280;11050;52.222;20.916;2022-09-09T04:46:09;99859.47;;;14.08;100.00
21779;BME280;11050;52.222;20.916;2022-09-09T04:48:35;99857.84;;;14.07;100.00
21779;BME280;11050;52.222;20.916;2022-09-09T04:51:05;99866.41;;;14.06;100.00
21779;BME280;11050;52.222;20.916;2022-09-09T04:53:32;99862.22;;;14.08;100.00
21779;BME280;11050;52.222;20.916;2022-09-09T04:56:12;99873.28;;;14.13;100.00
21779;BME280;11050;52.222;20.916;2022-09-09T04:58:40;99869.91;;;14.16;100.00
21779;BME280;11050;52.222;20.916;2022-09-09T05:01:20;99871.59;;;14.17;100.00
21779;BME280;11050;52.222;20.916;2022-09-09T05:03:47;99863.56;;;14.16;100.00
21779;BME280;11050;52.222;20.916;2022-09-09T05:06:19;99869.38;;;14.19;100.00
21779;BME280;11050;52.222;20.916;2022-09-09T05:08:45;99876.47;;;14.25;100.00
21779;BME280;11050;52.222;20.916;2022-09-09T05:11:21;99875.94;;;14.23;100.00
21779;BME280;11050;52.222;20.916;2022-09-09T05:13:50;99879.25;;;14.25;100.00
21779;BME280;11050;52.222;20.916;2022-09-09T05:16:17;99880.66;;;14.28;100.00
21779;BME280;11050;52.222;20.916;2022-09-09T05:18:43;99887.53;;;14.31;100.00
21779;BME280;11050;52.222;20.916;2022-09-09T05:21:11;99879.25;;;14.31;100.00
21779;BME280;11050;52.222;20.916;2022-09-09T05:23:38;99873.72;;;14.31;100.00
21779;BME280;11050;52.222;20.916;2022-09-09T05:26:04;99881.72;;;14.32;100.00
21779;BME280;11050;52.222;20.916;2022-09-09T05:28:33;99877.28;;;14.36;100.00
21779;BME280;11050;52.222;20.916;2022-09-09T05:31:07;99890.22;;;14.41;100.00
21779;BME280;11050;52.222;20.916;2022-09-09T05:33:42;99879.97;;;14.41;100.00
21779;BME280;11050;52.222;20.916;2022-09-09T05:36:14;99881.66;;;14.42;100.00
21779;BME280;11050;52.222;20.916;2022-09-09T05:38:42;99883.00;;;14.45;100.00
21779;BME280;11050;52.222;20.916;2022-09-09T05:41:09;99874.41;;;14.46;100.00
21779;BME280;11050;52.222;20.916;2022-09-09T05:43:37;99881.06;;;14.45;100.00
21779;BME280;11050;52.222;20.916;2022-09-09T05:46:16;99885.75;;;14.45;100.00
21779;BME280;11050;52.222;20.916;2022-09-09T05:48:45;99882.19;;;14.44;100.00
21779;BME280;11050;52.222;20.916;2022-09-09T05:51:18;99886.28;;;14.47;100.00
21779;BME280;11050;52.222;20.916;2022-09-09T05:53:45;99881.00;;;14.50;100.00
21779;BME280;11050;52.222;20.916;2022-09-09T05:56:18;99883.75;;;14.55;100.00
21779;BME280;11050;52.222;20.916;2022-09-09T05:58:45;99881.53;;;14.57;100.00
21779;BME280;11050;52.222;20.916;2022-09-09T06:01:20;99874.84;;;14.58;100.00
21779;BME280;11050;52.222;20.916;2022-09-09T06:03:49;99887.00;;;14.62;100.00
21779;BME280;11050;52.222;20.916;2022-09-09T06:06:21;99888.91;;;14.67;100.00
21779;BME280;11050;52.222;20.916;2022-09-09T06:08:50;99890.78;;;14.71;100.00
21779;BME280;11050;52.222;20.916;2022-09-09T06:11:23;99900.69;;;14.77;100.00
21779;BME280;11050;52.222;20.916;2022-09-09T06:13:50;99897.84;;;14.82;100.00
21779;BME280;11050;52.222;20.916;2022-09-09T06:16:24;99893.94;;;14.88;100.00
21779;BME280;11050;52.222;20.916;2022-09-09T06:18:52;99904.13;;;14.93;100.00
21779;BME280;11050;52.222;20.916;2022-09-09T06:21:21;99899.16;;;14.90;100.00
21779;BME280;11050;52.222;20.916;2022-09-09T06:23:48;99902.69;;;14.95;100.00
21779;BME280;11050;52.222;20.916;2022-09-09T06:26:40;99913.22;;;14.98;100.00
21779;BME280;11050;52.222;20.916;2022-09-09T06:29:08;99904.53;;;15.05;100.00
21779;BME280;11050;52.222;20.916;2022-09-09T06:31:36;99903.69;;;15.09;100.00
21779;BME280;11050;52.222;20.916;2022-09-09T06:34:06;99905.84;;;15.12;100.00
21779;BME280;11050;52.222;20.916;2022-09-09T06:36:35;99900.84;;;15.14;100.00
21779;BME280;11050;52.222;20.916;2022-09-09T06:39:03;99906.34;;;15.19;100.00
21779;BME280;11050;52.222;20.916;2022-09-09T06:41:32;99902.44;;;15.20;100.00
21779;BME280;11050;52.222;20.916;2022-09-09T06:43:58;99907.34;;;15.29;100.00
21779;BME280;11050;52.222;20.916;2022-09-09T06:46:30;99910.88;;;15.34;100.00
21779;BME280;11050;52.222;20.916;2022-09-09T06:48:58;99917.25;;;15.35;100.00
21779;BME280;11050;52.222;20.916;2022-09-09T06:51:35;99921.94;;;15.34;100.00
21779;BME280;11050;52.222;20.916;2022-09-09T06:54:02;99924.94;;;15.38;100.00
21779;BME280;11050;52.222;20.916;2022-09-09T06:56:37;99921.59;;;15.41;100.00
21779;BME280;11050;52.222;20.916;2022-09-09T06:59:07;99909.13;;;15.43;100.00
21779;BME280;11050;52.222;20.916;2022-09-09T07:01:37;99917.38;;;15.48;100.00
21779;BME280;11050;52.222;20.916;2022-09-09T07:04:04;99915.72;;;15.47;100.00
21779;BME280;11050;52.222;20.916;2022-09-09T07:06:36;99919.34;;;15.48;100.00
21779;BME280;11050;52.222;20.916;2022-09-09T07:09:09;99919.03;;;15.49;100.00
21779;BME280;11050;52.222;20.916;2022-09-09T07:11:44;99919.03;;;15.49;100.00
21779;BME280;11050;52.222;20.916;2022-09-09T07:14:10;99920.91;;;15.54;100.00
21779;BME280;11050;52.222;20.916;2022-09-09T07:16:44;99929.16;;;15.59;100.00
21779;BME280;11050;52.222;20.916;2022-09-09T07:19:12;99929.09;;;15.64;100.00
21779;BME280;11050;52.222;20.916;2022-09-09T07:21:38;99932.91;;;15.68;100.00
21779;BME280;11050;52.222;20.916;2022-09-09T07:24:06;99934.50;;;15.74;100.00
21779;BME280;11050;52.222;20.916;2022-09-09T07:26:33;99936.91;;;15.80;100.00
21779;BME280;11050;52.222;20.916;2022-09-09T07:29:00;99932.66;;;15.88;100.00
21779;BME280;11050;52.222;20.916;2022-09-09T07:31:29;99936.13;;;15.98;100.00
21779;BME280;11050;52.222;20.916;2022-09-09T07:34:00;99943.84;;;16.01;100.00
21779;BME280;11050;52.222;20.916;2022-09-09T07:36:33;99942.13;;;16.05;100.00
21779;BME280;11050;52.222;20.916;2022-09-09T07:39:11;99934.47;;;16.16;100.00
21779;BME280;11050;52.222;20.916;2022-09-09T07:41:48;99947.75;;;16.19;100.00
21779;BME280;11050;52.222;20.916;2022-09-09T07:44:21;99945.94;;;16.28;100.00
21779;BME280;11050;52.222;20.916;2022-09-09T07:46:47;99936.72;;;16.33;100.00
21779;BME280;11050;52.222;20.916;2022-09-09T07:49:14;99946.31;;;16.40;100.00
21779;BME280;11050;52.222;20.916;2022-09-09T07:51:44;99947.84;;;16.51;100.00
21779;BME280;11050;52.222;20.916;2022-09-09T07:54:13;99941.16;;;16.52;100.00
21779;BME280;11050;52.222;20.916;2022-09-09T07:56:41;99957.13;;;16.60;100.00
21779;BME280;11050;52.222;20.916;2022-09-09T07:59:08;99955.78;;;16.58;100.00
21779;BME280;11050;52.222;20.916;2022-09-09T08:01:43;99972.09;;;16.59;100.00
21779;BME280;11050;52.222;20.916;2022-09-09T08:04:13;99968.75;;;16.62;100.00
21779;BME280;11050;52.222;20.916;2022-09-09T08:07:03;99975.19;;;16.58;100.00
21779;BME280;11050;52.222;20.916;2022-09-09T08:09:29;99976.38;;;16.52;100.00
21779;BME280;11050;52.222;20.916;2022-09-09T08:11:56;99981.72;;;16.48;100.00
21779;BME280;11050;52.222;20.916;2022-09-09T08:14:22;99976.75;;;16.45;100.00
21779;BME280;11050;52.222;20.916;2022-09-09T08:16:50;99985.59;;;16.47;100.00
21779;BME280;11050;52.222;20.916;2022-09-09T08:19:17;99986.06;;;16.54;100.00
21779;BME280;11050;52.222;20.916;2022-09-09T08:21:44;99985.97;;;16.59;100.00
21779;BME280;11050;52.222;20.916;2022-09-09T08:24:11;99984.78;;;16.65;100.00
21779;BME280;11050;52.222;20.916;2022-09-09T08:26:43;99993.72;;;16.62;100.00
21779;BME280;11050;52.222;20.916;2022-09-09T08:29:12;99984.66;;;16.57;100.00
21779;BME280;11050;52.222;20.916;2022-09-09T08:31:42;99986.50;;;16.61;100.00
21779;BME280;11050;52.222;20.916;2022-09-09T08:34:09;99989.44;;;16.70;100.00
21779;BME280;11050;52.222;20.916;2022-09-09T08:36:39;99988.59;;;16.69;100.00
21779;BME280;11050;52.222;20.916;2022-09-09T08:39:06;99994.59;;;16.76;100.00
21779;BME280;11050;52.222;20.916;2022-09-09T08:50:21;99997.81;;;16.83;100.00
21779;BME280;11050;52.222;20.916;2022-09-09T08:53:01;99993.81;;;16.89;100.00
21779;BME280;11050;52.222;20.916;2022-09-09T08:58:23;99999.22;;;16.99;100.00
21779;BME280;11050;52.222;20.916;2022-09-09T09:11:57;100002.97;;;17.22;100.00
21779;BME280;11050;52.222;20.916;2022-09-09T09:14:32;100006.78;;;17.26;100.00
21779;BME280;11050;52.222;20.916;2022-09-09T09:17:17;100014.75;;;17.33;100.00
21779;BME280;11050;52.222;20.916;2022-09-09T09:19:47;100023.38;;;17.31;100.00
21779;BME280;11050;52.222;20.916;2022-09-09T09:28:02;100028.22;;;17.39;100.00
21779;BME280;11050;52.222;20.916;2022-09-09T09:30:59;100022.25;;;17.32;100.00
21779;BME280;11050;52.222;20.916;2022-09-09T09:33:50;100019.47;;;17.32;100.00
21779;BME280;11050;52.222;20.916;2022-09-09T09:36:20;100026.06;;;17.36;100.00
21779;BME280;11050;52.222;20.916;2022-09-09T09:38:58;100028.22;;;17.39;100.00
21779;BME280;11050;52.222;20.916;2022-09-09T09:41:42;100024.63;;;17.39;100.00
21779;BME280;11050;52.222;20.916;2022-09-09T09:46:52;100023.56;;;17.53;100.00
21779;BME280;11050;52.222;20.916;2022-09-09T09:49:19;100022.56;;;17.63;100.00
21779;BME280;11050;52.222;20.916;2022-09-09T09:51:45;100028.00;;;17.68;100.00
21779;BME280;11050;52.222;20.916;2022-09-09T09:54:15;100028.22;;;17.71;100.00
21779;BME280;11050;52.222;20.916;2022-09-09T09:56:45;100019.56;;;17.73;100.00
21779;BME280;11050;52.222;20.916;2022-09-09T09:59:36;100027.81;;;17.78;100.00
21779;BME280;11050;52.222;20.916;2022-09-09T10:02:22;100020.41;;;17.87;100.00
21779;BME280;11050;52.222;20.916;2022-09-09T10:05:23;100026.69;;;17.92;99.26
21779;BME280;11050;52.222;20.916;2022-09-09T10:08:20;100036.34;;;17.95;97.99
21779;BME280;11050;52.222;20.916;2022-09-09T10:19:36;100039.44;;;17.93;99.91
21779;BME280;11050;52.222;20.916;2022-09-09T10:22:20;100038.84;;;17.96;99.41
21779;BME280;11050;52.222;20.916;2022-09-09T10:25:38;100049.00;;;18.01;99.58
21779;BME280;11050;52.222;20.916;2022-09-09T10:37:03;100062.09;;;17.87;98.91
21779;BME280;11050;52.222;20.916;2022-09-09T10:39:39;100075.28;;;17.81;100.00
21779;BME280;11050;52.222;20.916;2022-09-09T10:42:14;100083.81;;;17.85;100.00
21779;BME280;11050;52.222;20.916;2022-09-09T10:53:33;100094.09;;;17.71;100.00
21779;BME280;11050;52.222;20.916;2022-09-09T10:56:16;100084.22;;;17.78;100.00
21779;BME280;11050;52.222;20.916;2022-09-09T10:58:51;100097.59;;;17.76;100.00
21779;BME280;11050;52.222;20.916;2022-09-09T11:02:20;100096.88;;;17.71;100.00
21779;BME280;11050;52.222;20.916;2022-09-09T11:07:40;100095.63;;;17.63;100.00
21779;BME280;11050;52.222;20.916;2022-09-09T11:10:24;100098.69;;;17.62;100.00
21779;BME280;11050;52.222;20.916;2022-09-09T11:13:02;100104.88;;;17.72;100.00
21779;BME280;11050;52.222;20.916;2022-09-09T11:15:41;100105.66;;;17.78;100.00
21779;BME280;11050;52.222;20.916;2022-09-09T11:18:19;100108.91;;;17.80;100.00
21779;BME280;11050;52.222;20.916;2022-09-09T11:20:50;100109.75;;;17.80;100.00
21779;BME280;11050;52.222;20.916;2022-09-09T11:23:41;100106.25;;;17.75;100.00
21779;BME280;11050;52.222;20.916;2022-09-09T11:26:41;100102.75;;;17.83;100.00
21779;BME280;11050;52.222;20.916;2022-09-09T11:30:22;100105.44;;;17.88;100.00
21779;BME280;11050;52.222;20.916;2022-09-09T11:38:32;100115.97;;;18.05;100.00
21779;BME280;11050;52.222;20.916;2022-09-09T11:41:07;100107.75;;;18.13;100.00
21779;BME280;11050;52.222;20.916;2022-09-09T11:43:46;100103.28;;;18.12;100.00
21779;BME280;11050;52.222;20.916;2022-09-09T11:46:18;100101.34;;;18.13;100.00
21779;BME280;11050;52.222;20.916;2022-09-09T11:48:58;100107.22;;;18.11;100.00
21779;BME280;11050;52.222;20.916;2022-09-09T11:53:58;100118.97;;;18.08;100.00
21779;BME280;11050;52.222;20.916;2022-09-09T11:56:58;100122.97;;;18.02;100.00
21779;BME280;11050;52.222;20.916;2022-09-09T11:59:32;100119.38;;;18.02;100.00
21779;BME280;11050;52.222;20.916;2022-09-09T12:02:12;100121.94;;;17.98;100.00
21779;BME280;11050;52.222;20.916;2022-09-09T12:05:04;100120.19;;;18.02;100.00
21779;BME280;11050;52.222;20.916;2022-09-09T12:07:56;100105.97;;;18.04;100.00
21779;BME280;11050;52.222;20.916;2022-09-09T12:10:39;100108.06;;;18.12;100.00
21779;BME280;11050;52.222;20.916;2022-09-09T12:13:26;100117.13;;;18.17;100.00
21779;BME280;11050;52.222;20.916;2022-09-09T12:15:54;100117.13;;;18.17;100.00
21779;BME280;11050;52.222;20.916;2022-09-09T12:24:28;100120.19;;;18.02;100.00
21779;BME280;11050;52.222;20.916;2022-09-09T12:27:24;100120.00;;;17.98;100.00
21779;BME280;11050;52.222;20.916;2022-09-09T12:30:15;100123.88;;;17.97;100.00
21779;BME280;11050;52.222;20.916;2022-09-09T12:32:41;100120.72;;;18.04;100.00
21779;BME280;11050;52.222;20.916;2022-09-09T12:35:16;100130.19;;;18.17;100.00
21779;BME280;11050;52.222;20.916;2022-09-09T12:38:00;100120.19;;;18.29;100.00
21779;BME280;11050;52.222;20.916;2022-09-09T12:40:31;100112.56;;;18.35;100.00
21779;BME280;11050;52.222;20.916;2022-09-09T12:42:58;100119.13;;;18.44;100.00
21779;BME280;11050;52.222;20.916;2022-09-09T12:45:32;100117.13;;;18.44;100.00
21779;BME280;11050;52.222;20.916;2022-09-09T12:48:10;100111.56;;;18.44;100.00
21779;BME280;11050;52.222;20.916;2022-09-09T12:50:50;100109.22;;;18.51;100.00
21779;BME280;11050;52.222;20.916;2022-09-09T12:53:31;100111.88;;;18.56;100.00
21779;BME280;11050;52.222;20.916;2022-09-09T12:56:07;100107.97;;;18.44;100.00
21779;BME280;11050;52.222;20.916;2022-09-09T12:58:37;100113.28;;;18.40;100.00
21779;BME280;11050;52.222;20.916;2022-09-09T13:01:05;100115.81;;;18.42;100.00
21779;BME280;11050;52.222;20.916;2022-09-09T13:03:33;100112.72;;;18.43;100.00
21779;BME280;11050;52.222;20.916;2022-09-09T13:06:22;100115.78;;;18.55;100.00
21779;BME280;11050;52.222;20.916;2022-09-09T13:08:50;100120.63;;;18.63;100.00
21779;BME280;11050;52.222;20.916;2022-09-09T13:11:48;100112.78;;;18.65;100.00
21779;BME280;11050;52.222;20.916;2022-09-09T13:14:30;100108.38;;;18.64;100.00
21779;BME280;11050;52.222;20.916;2022-09-09T13:17:03;100110.00;;;18.65;100.00
21779;BME280;11050;52.222;20.916;2022-09-09T13:19:36;100112.78;;;18.65;100.00
21779;BME280;11050;52.222;20.916;2022-09-09T13:22:35;100102.38;;;18.57;100.00
21779;BME280;11050;52.222;20.916;2022-09-09T13:25:29;100100.94;;;18.60;100.00
21779;BME280;11050;52.222;20.916;2022-09-09T13:28:04;100101.47;;;18.62;100.00
21779;BME280;11050;52.222;20.916;2022-09-09T13:30:34;100102.38;;;18.57;100.00
21779;BME280;11050;52.222;20.916;2022-09-09T13:35:58;100099.31;;;18.59;100.00
21779;BME280;11050;52.222;20.916;2022-09-09T13:38:27;100101.28;;;18.45;100.00
21779;BME280;11050;52.222;20.916;2022-09-09T13:41:06;100101.34;;;18.26;100.00
21779;BME280;11050;52.222;20.916;2022-09-09T13:43:46;100098.03;;;18.11;100.00
21779;BME280;11050;52.222;20.916;2022-09-09T13:46:35;100097.75;;;17.98;100.00
21779;BME280;11050;52.222;20.916;2022-09-09T13:51:49;100105.75;;;17.86;100.00
21779;BME280;11050;52.222;20.916;2022-09-09T13:54:19;100115.25;;;17.85;100.00
21779;BME280;11050;52.222;20.916;2022-09-09T13:56:45;100105.56;;;17.83;100.00
21779;BME280;11050;52.222;20.916;2022-09-09T13:59:18;100110.69;;;17.76;100.00
21779;BME280;11050;52.222;20.916;2022-09-09T14:01:45;100110.16;;;17.74;100.00
21779;BME280;11050;52.222;20.916;2022-09-09T14:04:11;100111.91;;;17.70;100.00
21779;BME280;11050;52.222;20.916;2022-09-09T14:06:39;100109.81;;;17.62;100.00
21779;BME280;11050;52.222;20.916;2022-09-09T14:09:06;100112.59;;;17.62;100.00
21779;BME280;11050;52.222;20.916;2022-09-09T14:11:32;100112.19;;;17.55;100.00
21779;BME280;11050;52.222;20.916;2022-09-09T14:13:58;100115.84;;;17.50;100.00
21779;BME280;11050;52.222;20.916;2022-09-09T14:16:24;100115.63;;;17.47;100.00
21779;BME280;11050;52.222;20.916;2022-09-09T14:18:53;100116.22;;;17.44;100.00
21779;BME280;11050;52.222;20.916;2022-09-09T14:21:22;100120.13;;;17.43;100.00
21779;BME280;11050;52.222;20.916;2022-09-09T14:23:48;100114.56;;;17.43;100.00
21779;BME280;11050;52.222;20.916;2022-09-09T14:26:14;100120.34;;;17.46;100.00
21779;BME280;11050;52.222;20.916;2022-09-09T14:28:40;100127.03;;;17.45;100.00
21779;BME280;11050;52.222;20.916;2022-09-09T14:31:07;100124.50;;;17.49;100.00
21779;BME280;11050;52.222;20.916;2022-09-09T14:33:33;100126.28;;;17.58;100.00
21779;BME280;11050;52.222;20.916;2022-09-09T14:36:02;100114.47;;;17.66;100.00
21779;BME280;11050;52.222;20.916;2022-09-09T14:38:34;100121.00;;;17.89;100.00
21779;BME280;11050;52.222;20.916;2022-09-09T14:41:00;100124.03;;;18.06;100.00
21779;BME280;11050;52.222;20.916;2022-09-09T14:43:29;100130.91;;;18.09;100.00
21779;BME280;11050;52.222;20.916;2022-09-09T14:46:18;100127.53;;;18.12;100.00
21779;BME280;11050;52.222;20.916;2022-09-09T14:48:45;100117.44;;;18.16;100.00
21779;BME280;11050;52.222;20.916;2022-09-09T14:51:23;100130.81;;;18.27;100.00
21779;BME280;11050;52.222;20.916;2022-09-09T14:53:58;100136.38;;;18.27;100.00
21779;BME280;11050;52.222;20.916;2022-09-09T14:56:28;100126.19;;;18.23;100.00
21779;BME280;11050;52.222;20.916;2022-09-09T14:58:57;100127.22;;;18.27;100.00
21779;BME280;11050;52.222;20.916;2022-09-09T15:01:24;100134.53;;;18.23;100.00